createdAt,value
2018-04-25T00:02:12.018Z,56.40
2018-04-25T00:04:41.034Z,56.50
2018-04-25T00:07:10.044Z,56.50
2018-04-25T00:09:38.278Z,56.50
2018-04-25T00:12:06.775Z,56.70
2018-04-25T00:14:35.781Z,57.00
2018-04-25T00:17:04.793Z,56.90
2018-04-25T00:19:33.030Z,56.90
2018-04-25T00:22:02.038Z,57.30
2018-04-25T00:24:31.062Z,57.50
2018-04-25T00:26:59.406Z,57.50
2018-04-25T00:29:28.417Z,57.80
2018-04-25T00:31:56.654Z,57.80
2018-04-25T00:34:24.895Z,57.70
2018-04-25T00:36:53.137Z,58.00
2018-04-25T00:39:21.373Z,58.10
2018-04-25T00:41:49.613Z,58.10
2018-04-25T00:44:17.845Z,58.20
2018-04-25T00:46:46.854Z,58.30
2018-04-25T00:49:15.085Z,58.30
2018-04-25T00:51:43.326Z,58.50
2018-04-25T00:54:11.626Z,58.40
2018-04-25T00:56:39.881Z,58.60
2018-04-25T00:59:08.150Z,58.70
2018-04-25T01:01:36.381Z,58.80
2018-04-25T01:04:05.390Z,59.00
2018-04-25T01:06:34.398Z,59.00
2018-04-25T01:09:02.653Z,59.00
2018-04-25T01:11:31.659Z,59.10
2018-04-25T01:13:59.903Z,59.10
2018-04-25T01:16:28.515Z,59.20
2018-04-25T01:18:57.518Z,59.40
2018-04-25T01:21:25.761Z,59.40
2018-04-25T01:23:54.027Z,59.40
2018-04-25T01:26:22.270Z,59.50
2018-04-25T01:28:57.198Z,59.50
2018-04-25T01:31:34.131Z,59.60
2018-04-25T01:34:12.487Z,59.70
2018-04-25T01:40:02.387Z,59.40
2018-04-25T01:43:08.146Z,59.60
2018-04-25T01:49:31.064Z,59.40
2018-04-25T01:52:17.085Z,59.40
2018-04-25T01:55:03.022Z,59.50
2018-04-25T01:57:49.135Z,59.40
2018-04-25T02:00:35.301Z,59.60
2018-04-25T02:03:02.746Z,59.70
2018-04-25T02:05:31.000Z,59.90
2018-04-25T02:07:59.246Z,59.90
2018-04-25T02:10:27.482Z,60.00
2018-04-25T02:12:55.734Z,60.20
2018-04-25T02:15:23.978Z,60.50
2018-04-25T02:17:52.973Z,60.80
2018-04-25T02:20:21.974Z,60.80
2018-04-25T02:22:50.993Z,61.00
2018-04-25T02:25:19.230Z,61.00
2018-04-25T02:27:48.231Z,61.90
2018-04-25T02:30:17.238Z,61.40
2018-04-25T02:32:45.487Z,61.40
2018-04-25T02:35:13.731Z,61.70
2018-04-25T02:37:42.258Z,62.00
2018-04-25T02:40:11.253Z,62.20
2018-04-25T02:42:40.260Z,62.10
2018-04-25T02:45:09.262Z,62.10
2018-04-25T02:47:37.503Z,62.00
2018-04-25T02:50:05.750Z,62.20
2018-04-25T02:52:34.075Z,62.30
2018-04-25T02:55:03.078Z,62.30
2018-04-25T02:57:31.331Z,62.30
2018-04-25T03:00:00.337Z,62.60
2018-04-25T03:02:29.354Z,62.60
2018-04-25T03:04:57.590Z,62.60
2018-04-25T03:07:26.115Z,62.80
2018-04-25T03:09:54.333Z,62.70
2018-04-25T03:12:22.575Z,62.90
2018-04-25T03:14:50.818Z,62.80
2018-04-25T03:17:19.115Z,63.10
2018-04-25T03:19:47.735Z,63.00
2018-04-25T03:22:15.958Z,63.20
2018-04-25T03:24:44.190Z,63.30
2018-04-25T03:27:12.434Z,63.50
2018-04-25T03:29:40.794Z,63.70
2018-04-25T03:32:09.022Z,63.80
2018-04-25T03:34:37.257Z,63.90
2018-04-25T03:37:05.508Z,64.00
2018-04-25T03:39:33.746Z,64.00
2018-04-25T03:42:02.258Z,64.30
2018-04-25T03:44:31.260Z,64.60
2018-04-25T03:46:59.487Z,64.60
2018-04-25T03:49:28.010Z,64.60
2018-04-25T03:51:57.010Z,65.00
2018-04-25T03:54:25.303Z,64.90
2018-04-25T03:56:53.694Z,65.10
2018-04-25T03:59:21.956Z,65.00
2018-04-25T04:01:50.185Z,64.90
2018-04-25T04:04:18.418Z,64.80
2018-04-25T04:06:46.730Z,64.90
2018-04-25T04:09:14.974Z,64.70
2018-04-25T04:11:43.210Z,64.80
2018-04-25T04:14:12.227Z,64.90
2018-04-25T04:16:40.585Z,64.90
2018-04-25T04:19:09.672Z,65.10
2018-04-25T04:21:38.674Z,64.30
2018-04-25T04:24:06.930Z,64.20
2018-04-25T04:26:35.940Z,63.20
2018-04-25T04:29:04.171Z,63.00
2018-04-25T04:31:32.798Z,63.20
2018-04-25T04:34:01.806Z,62.90
2018-04-25T04:36:30.049Z,62.80
2018-04-25T04:38:58.286Z,62.80
2018-04-25T04:41:26.521Z,63.50
2018-04-25T04:43:54.770Z,62.90
2018-04-25T04:46:23.011Z,63.20
2018-04-25T04:48:51.247Z,62.90
2018-04-25T04:51:19.818Z,62.90
2018-04-25T04:53:48.826Z,63.20
2018-04-25T04:56:17.066Z,63.20
2018-04-25T04:58:46.073Z,63.70
2018-04-25T05:01:15.090Z,64.00
2018-04-25T05:03:43.326Z,64.00
2018-04-25T05:06:11.570Z,64.30
2018-04-25T05:08:40.172Z,64.70
2018-04-25T05:11:09.007Z,65.50
2018-04-25T05:13:37.237Z,65.40
2018-04-25T05:16:05.493Z,65.70
2018-04-25T05:18:33.769Z,65.90
2018-04-25T05:21:02.008Z,66.00
2018-04-25T05:23:30.245Z,66.20
2018-04-25T05:25:58.858Z,66.40
2018-04-25T05:28:27.877Z,66.30
2018-04-25T05:30:56.111Z,66.20
2018-04-25T05:33:24.349Z,66.40
2018-04-25T05:35:52.603Z,66.20
2018-04-25T05:38:20.858Z,66.30
2018-04-25T05:40:49.861Z,66.10
2018-04-25T05:43:18.118Z,66.10
2018-04-25T05:45:47.354Z,66.00
2018-04-25T05:48:15.606Z,65.90
2018-04-25T05:50:43.841Z,65.80
2018-04-25T05:53:12.462Z,65.60
2018-04-25T05:55:41.462Z,65.20
2018-04-25T05:58:09.694Z,65.20
2018-04-25T06:00:37.942Z,64.80
2018-04-25T06:03:07.212Z,64.60
2018-04-25T06:05:35.452Z,64.50
2018-04-25T06:08:03.686Z,64.00
2018-04-25T06:10:31.943Z,63.80
2018-04-25T06:13:00.182Z,64.00
2018-04-25T06:15:28.434Z,63.50
2018-04-25T06:17:56.665Z,63.20
2018-04-25T06:20:24.947Z,62.80
2018-04-25T06:22:53.178Z,62.30
2018-04-25T06:25:21.423Z,62.10
2018-04-25T06:27:49.662Z,61.90
2018-04-25T06:30:17.917Z,62.40
2018-04-25T06:32:46.945Z,61.30
2018-04-25T06:35:15.178Z,61.10
2018-04-25T06:37:43.425Z,61.10
2018-04-25T06:40:11.661Z,61.00
2018-04-25T06:42:39.910Z,60.10
2018-04-25T06:45:08.917Z,59.90
2018-04-25T06:47:37.925Z,59.00
2018-04-25T06:50:06.182Z,58.90
2018-04-25T06:52:35.182Z,57.70
2018-04-25T06:55:04.271Z,56.60
2018-04-25T06:57:33.292Z,56.30
2018-04-25T07:00:01.517Z,56.30
2018-04-25T07:02:29.766Z,55.30
2018-04-25T07:04:58.022Z,55.00
2018-04-25T07:07:26.374Z,53.80
2018-04-25T07:09:55.370Z,53.50
2018-04-25T07:12:23.623Z,53.50
2018-04-25T07:14:52.625Z,53.60
2018-04-25T07:17:21.940Z,52.10
2018-04-25T07:19:50.170Z,52.00
2018-04-25T07:22:18.422Z,51.70
2018-04-25T07:24:46.766Z,51.30
2018-04-25T07:27:15.010Z,50.90
2018-04-25T07:29:43.245Z,51.00
2018-04-25T07:32:11.503Z,50.90
2018-04-25T07:34:39.758Z,50.70
2018-04-25T07:37:08.773Z,51.00
2018-04-25T07:39:37.005Z,51.00
2018-04-25T07:42:05.290Z,51.20
2018-04-25T07:44:34.297Z,51.20
2018-04-25T07:47:03.503Z,51.60
2018-04-25T07:49:32.509Z,50.80
2018-04-25T07:52:00.740Z,50.70
2018-04-25T07:54:29.003Z,50.70
2018-04-25T07:56:57.245Z,50.60
2018-04-25T07:59:25.521Z,50.40
2018-04-25T08:01:53.764Z,50.60
2018-04-25T08:04:22.762Z,49.50
2018-04-25T08:06:51.813Z,50.20
2018-04-25T08:09:20.054Z,50.30
2018-04-25T08:11:48.294Z,49.90
2018-04-25T08:14:34.989Z,49.90
2018-04-25T08:17:20.998Z,49.80
2018-04-25T08:22:58.841Z,49.50
2018-04-25T08:25:27.078Z,49.30
2018-04-25T08:27:55.325Z,48.70
2018-04-25T08:30:23.565Z,48.40
2018-04-25T08:32:51.817Z,46.80
2018-04-25T08:35:20.098Z,47.30
2018-04-25T08:37:49.103Z,46.20
2018-04-25T08:40:18.141Z,46.30
2018-04-25T08:42:46.374Z,46.30
2018-04-25T08:45:14.648Z,46.60
2018-04-25T08:47:43.633Z,46.70
2018-04-25T08:50:12.656Z,46.00
2018-04-25T08:52:41.000Z,45.90
2018-04-25T08:55:09.182Z,44.50
2018-04-25T08:57:38.185Z,44.10
2018-04-25T09:00:07.234Z,44.00
2018-04-25T09:02:36.977Z,45.40
2018-04-25T09:05:05.212Z,45.40
2018-04-25T09:07:33.635Z,44.00
2018-04-25T09:10:01.879Z,44.10
2018-04-25T09:12:30.214Z,43.00
2018-04-25T09:14:58.446Z,43.80
2018-04-25T09:17:27.470Z,42.20
2018-04-25T09:19:55.703Z,42.10
2018-04-25T09:22:24.214Z,41.80
2018-04-25T09:24:52.450Z,40.30
2018-04-25T09:27:20.694Z,41.10
2018-04-25T09:29:48.942Z,40.70
2018-04-25T09:32:17.207Z,40.40
2018-04-25T09:34:46.217Z,39.20
2018-04-25T09:37:14.471Z,39.20
2018-04-25T09:39:43.480Z,39.00
2018-04-25T09:42:11.749Z,38.90
2018-04-25T09:44:40.754Z,38.30
2018-04-25T09:47:09.009Z,38.20
2018-04-25T09:49:38.018Z,38.00
2018-04-25T09:52:06.290Z,37.90
2018-04-25T09:54:35.306Z,38.00
2018-04-25T09:57:03.565Z,38.10
2018-04-25T09:59:31.810Z,37.90
2018-04-25T10:02:03.029Z,38.00
2018-04-25T10:04:31.266Z,36.70
2018-04-25T10:06:59.501Z,36.70
2018-04-25T10:09:27.758Z,37.70
2018-04-25T10:11:56.011Z,38.70
2018-04-25T10:14:24.240Z,38.70
2018-04-25T10:16:53.262Z,38.50
2018-04-25T10:19:22.619Z,38.40
2018-04-25T10:21:52.358Z,40.50
2018-04-25T10:24:21.373Z,38.30
2018-04-25T10:26:49.601Z,38.20
2018-04-25T10:29:17.834Z,38.20
2018-04-25T10:31:46.285Z,37.50
2018-04-25T10:34:15.297Z,36.50
2018-04-25T10:36:43.526Z,36.50
2018-04-25T10:39:11.787Z,37.30
2018-04-25T10:41:40.023Z,36.50
2018-04-25T10:44:08.283Z,36.50
2018-04-25T10:46:37.281Z,36.60
2018-04-25T10:49:05.552Z,36.50
2018-04-25T10:51:33.794Z,37.00
2018-04-25T10:54:02.297Z,36.70
2018-04-25T10:56:31.305Z,36.60
2018-04-25T10:58:59.538Z,36.50
2018-04-25T11:01:28.562Z,35.80
2018-04-25T11:03:57.564Z,36.00
2018-04-25T11:06:25.819Z,36.00
2018-04-25T11:08:54.054Z,35.70
2018-04-25T11:11:22.294Z,34.40
2018-04-25T11:13:50.541Z,35.20
2018-04-25T11:16:19.560Z,35.70
2018-04-25T11:18:47.794Z,35.70
2018-04-25T11:21:16.227Z,35.40
2018-04-25T11:23:44.509Z,35.00
2018-04-25T11:26:12.741Z,34.50
2018-04-25T11:28:41.760Z,35.20
2018-04-25T11:31:10.018Z,35.10
2018-04-25T11:33:39.021Z,34.40
2018-04-25T11:36:08.039Z,33.70
2018-04-25T11:38:36.273Z,33.70
2018-04-25T11:41:05.307Z,34.50
2018-04-25T11:43:33.550Z,34.50
2018-04-25T11:46:02.624Z,33.10
2018-04-25T11:48:30.856Z,33.10
2018-04-25T11:50:59.102Z,32.80
2018-04-25T11:53:28.106Z,34.40
2018-04-25T11:55:56.348Z,34.30
2018-04-25T11:58:24.594Z,36.10
2018-04-25T12:00:52.832Z,36.20
2018-04-25T12:03:21.309Z,36.40
2018-04-25T12:05:49.564Z,33.90
2018-04-25T12:08:17.804Z,33.80
2018-04-25T12:10:46.052Z,34.40
2018-04-25T12:13:14.335Z,35.00
2018-04-25T12:15:43.307Z,34.60
2018-04-25T12:18:11.565Z,34.50
2018-04-25T12:20:40.656Z,33.10
2018-04-25T12:23:08.821Z,33.00
2018-04-25T12:25:37.858Z,32.50
2018-04-25T12:28:06.102Z,32.10
2018-04-25T12:30:35.141Z,32.70
2018-04-25T12:33:03.399Z,32.70
2018-04-25T12:35:31.664Z,33.10
2018-04-25T12:37:59.951Z,33.10
2018-04-25T12:40:28.195Z,33.50
2018-04-25T12:42:57.214Z,32.30
2018-04-25T12:45:25.479Z,32.30
2018-04-25T12:47:53.721Z,33.10
2018-04-25T12:50:21.953Z,32.70
2018-04-25T12:52:50.194Z,31.90
2018-04-25T12:55:19.208Z,33.10
2018-04-25T12:57:47.480Z,32.50
2018-04-25T13:00:15.710Z,32.00
2018-04-25T13:02:43.946Z,31.50
2018-04-25T13:05:12.198Z,32.00
2018-04-25T13:07:41.210Z,32.20
2018-04-25T13:10:09.446Z,32.20
2018-04-25T13:12:38.465Z,30.70
2018-04-25T13:15:06.818Z,30.60
2018-04-25T13:17:35.726Z,31.00
2018-04-25T13:20:04.744Z,31.10
2018-04-25T13:22:32.983Z,31.00
2018-04-25T13:25:02.013Z,31.70
2018-04-25T13:27:30.262Z,31.60
2018-04-25T13:29:59.281Z,31.10
2018-04-25T13:32:27.518Z,31.00
2018-04-25T13:34:56.535Z,30.70
2018-04-25T13:37:24.794Z,30.70
2018-04-25T13:39:53.824Z,31.10
2018-04-25T13:42:22.058Z,31.10
2018-04-25T13:44:51.093Z,32.00
2018-04-25T13:47:19.342Z,31.90
2018-04-25T13:49:47.615Z,32.90
2018-04-25T13:52:16.625Z,34.20
2018-04-25T13:54:44.874Z,34.10
2018-04-25T13:57:13.878Z,34.10
2018-04-25T13:59:43.179Z,33.70
2018-04-25T14:02:11.431Z,33.70
2018-04-25T14:04:39.663Z,32.70
2018-04-25T14:07:07.918Z,33.10
2018-04-25T14:09:36.157Z,34.30
2018-04-25T14:12:04.409Z,34.60
2018-04-25T14:14:32.652Z,34.70
2018-04-25T14:17:00.908Z,35.60
2018-04-25T14:19:29.903Z,34.70
2018-04-25T14:21:58.474Z,34.70
2018-04-25T14:24:27.473Z,33.90
2018-04-25T14:26:55.762Z,33.70
2018-04-25T14:29:24.026Z,33.40
2018-04-25T14:31:53.027Z,34.50
2018-04-25T14:34:21.268Z,34.40
2018-04-25T14:36:49.534Z,34.80
2018-04-25T14:39:18.169Z,34.50
2018-04-25T14:41:46.409Z,34.30
2018-04-25T14:44:14.646Z,35.00
2018-04-25T14:46:42.890Z,36.30
2018-04-25T14:49:11.182Z,34.50
2018-04-25T14:51:39.429Z,35.20
2018-04-25T14:54:07.670Z,34.10
2018-04-25T14:56:37.464Z,35.10
2018-04-25T14:59:05.694Z,35.00
2018-04-25T15:01:34.805Z,35.70
2018-04-25T15:04:02.964Z,35.60
2018-04-25T15:06:31.975Z,36.50
2018-04-25T15:09:00.214Z,36.50
2018-04-25T15:11:29.429Z,36.40
2018-04-25T15:13:58.427Z,36.20
2018-04-25T15:16:26.670Z,36.20
2018-04-25T15:18:54.915Z,36.20
2018-04-25T15:21:23.159Z,38.10
2018-04-25T15:23:51.402Z,37.40
2018-04-25T15:26:20.416Z,37.10
2018-04-25T15:28:48.666Z,37.50
2018-04-25T15:31:16.907Z,38.30
2018-04-25T15:33:45.208Z,37.60
2018-04-25T15:36:13.468Z,37.30
2018-04-25T15:38:41.728Z,37.80
2018-04-25T15:41:09.959Z,37.90
2018-04-25T15:43:38.971Z,37.90
2018-04-25T15:46:07.224Z,37.90
2018-04-25T15:48:36.230Z,38.60
2018-04-25T15:51:04.490Z,38.60
2018-04-25T15:53:33.502Z,39.80
2018-04-25T15:56:01.752Z,39.80
2018-04-25T15:58:30.003Z,39.70
2018-04-25T16:00:58.244Z,39.50
2018-04-25T16:03:26.497Z,39.60
2018-04-25T16:05:55.519Z,39.30
2018-04-25T16:08:23.762Z,39.30
2018-04-25T16:10:52.784Z,40.10
2018-04-25T16:13:21.042Z,40.10
2018-04-25T16:15:49.280Z,40.10
2018-04-25T16:18:17.530Z,40.10
2018-04-25T16:20:45.793Z,40.20
2018-04-25T16:23:14.038Z,40.90
2018-04-25T16:25:43.058Z,40.90
2018-04-25T16:28:11.718Z,40.90
2018-04-25T16:30:40.866Z,41.30
2018-04-25T16:33:09.052Z,41.30
2018-04-25T16:35:37.293Z,41.00
2018-04-25T16:38:05.538Z,40.80
2018-04-25T16:40:34.838Z,40.80
2018-04-25T16:43:03.844Z,41.10
2018-04-25T16:45:32.082Z,41.00
2018-04-25T16:48:00.325Z,41.10
2018-04-25T16:50:28.631Z,41.10
2018-04-25T16:52:57.170Z,41.20
2018-04-25T16:55:25.445Z,41.30
2018-04-25T16:57:53.686Z,41.50
2018-04-25T17:00:22.708Z,41.80
2018-04-25T17:02:50.953Z,41.70
2018-04-25T17:05:19.966Z,42.50
2018-04-25T17:07:48.214Z,42.50
2018-04-25T17:10:16.459Z,42.30
2018-04-25T17:12:44.694Z,43.10
2018-04-25T17:15:12.949Z,42.60
2018-04-25T17:17:41.954Z,42.60
2018-04-25T17:20:10.202Z,42.60
2018-04-25T17:22:38.442Z,42.90
2018-04-25T17:25:06.702Z,44.50
2018-04-25T17:27:34.941Z,43.20
2018-04-25T17:30:03.995Z,43.30
2018-04-25T17:32:32.242Z,43.20
2018-04-25T17:35:00.490Z,43.40
2018-04-25T17:37:29.513Z,42.60
2018-04-25T17:39:57.752Z,42.60
2018-04-25T17:42:26.854Z,42.60
2018-04-25T17:44:55.857Z,42.30
2018-04-25T17:47:24.122Z,42.30
2018-04-25T17:49:53.157Z,43.50
2018-04-25T17:52:21.387Z,43.60
2018-04-25T17:54:50.411Z,43.60
2018-04-25T17:57:18.665Z,43.60
2018-04-25T17:59:47.679Z,44.10
2018-04-25T18:02:15.927Z,44.00
2018-04-25T18:04:44.930Z,45.40
2018-04-25T18:07:13.974Z,45.90
2018-04-25T18:09:42.939Z,45.90
2018-04-25T18:12:11.305Z,46.10
2018-04-25T18:14:39.542Z,46.50
2018-04-25T18:17:07.876Z,47.00
2018-04-25T18:19:36.318Z,47.30
2018-04-25T18:22:05.327Z,47.60
2018-04-25T18:24:33.583Z,47.50
2018-04-25T18:27:02.649Z,47.50
2018-04-25T18:29:30.897Z,47.40
2018-04-25T18:31:59.164Z,47.80
2018-04-25T18:34:27.430Z,48.20
2018-04-25T18:36:55.698Z,48.20
2018-04-25T18:39:23.975Z,48.10
2018-04-25T18:41:52.973Z,48.00
2018-04-25T18:44:21.222Z,48.00
2018-04-25T18:46:50.241Z,48.40
2018-04-25T18:49:18.634Z,48.40
2018-04-25T18:51:46.900Z,48.60
2018-04-25T18:54:15.288Z,48.70
2018-04-25T18:56:43.518Z,49.10
2018-04-25T18:59:11.816Z,49.20
2018-04-25T19:01:40.905Z,49.40
2018-04-25T19:04:09.987Z,49.70
2018-04-25T19:06:39.031Z,50.10
2018-04-25T19:09:07.265Z,49.90
2018-04-25T19:11:36.294Z,50.70
2018-04-25T19:14:04.534Z,50.60
2018-04-25T19:16:33.572Z,51.50
2018-04-25T19:19:01.803Z,51.50
2018-04-25T19:21:30.829Z,51.50
2018-04-25T19:23:59.058Z,51.40
2018-04-25T19:26:27.303Z,51.60
2018-04-25T19:28:55.564Z,51.30
2018-04-25T19:31:23.793Z,51.60
2018-04-25T19:33:52.878Z,52.00
2018-04-25T19:36:21.172Z,51.90
2018-04-25T19:38:50.190Z,52.60
2018-04-25T19:41:18.442Z,52.60
2018-04-25T19:43:47.520Z,52.50
2018-04-25T19:46:15.741Z,52.40
2018-04-25T19:48:44.004Z,52.30
2018-04-25T19:51:12.233Z,52.60
2018-04-25T19:53:40.490Z,52.30
2018-04-25T19:58:43.293Z,52.80
2018-04-25T20:01:11.549Z,53.20
2018-04-25T20:03:39.802Z,53.30
2018-04-25T20:06:08.038Z,53.30
2018-04-25T20:08:36.281Z,53.30
2018-04-25T20:11:04.557Z,53.70
2018-04-25T20:13:32.818Z,53.50
2018-04-25T20:16:01.061Z,53.40
2018-04-25T20:18:30.543Z,54.00
2018-04-25T20:20:58.794Z,53.90
2018-04-25T20:23:27.082Z,53.90
2018-04-25T20:25:55.438Z,53.90
2018-04-25T20:28:23.657Z,54.00
2018-04-25T20:30:51.906Z,54.20
2018-04-25T20:33:20.137Z,54.20
2018-04-25T20:35:48.431Z,54.20
2018-04-25T20:38:16.682Z,54.30
2018-04-25T20:40:44.985Z,53.80
2018-04-25T20:43:13.225Z,54.20
2018-04-25T20:45:42.230Z,54.30
2018-04-25T20:48:10.683Z,54.20
2018-04-25T20:50:39.998Z,54.30
2018-04-25T20:53:09.035Z,53.70
2018-04-25T20:55:37.317Z,53.70
2018-04-25T20:58:05.554Z,53.90
2018-04-25T21:00:33.789Z,53.90
2018-04-25T21:03:02.049Z,53.80
2018-04-25T21:05:30.302Z,54.30
2018-04-25T21:07:58.618Z,54.10
2018-04-25T21:10:26.871Z,54.30
2018-04-25T21:12:55.130Z,55.10
2018-04-25T21:15:23.350Z,54.20
2018-04-25T21:17:51.601Z,54.30
2018-04-25T21:20:19.842Z,54.10
2018-04-25T21:22:48.085Z,54.70
2018-04-25T21:25:17.089Z,56.10
2018-04-25T21:27:46.090Z,57.40
2018-04-25T21:30:15.098Z,57.60
2018-04-25T21:32:43.343Z,57.50
2018-04-25T21:35:12.369Z,58.40
2018-04-25T21:37:40.610Z,57.80
2018-04-25T21:40:08.855Z,57.30
2018-04-25T21:42:37.093Z,58.50
2018-04-25T21:45:05.611Z,58.20
2018-04-25T21:47:33.855Z,57.30
2018-04-25T21:50:02.097Z,58.20
2018-04-25T21:52:31.105Z,59.80
2018-04-25T21:54:59.658Z,59.90
2018-04-25T21:57:27.889Z,59.20
2018-04-25T21:59:56.126Z,59.30
2018-04-25T22:02:25.225Z,59.80
2018-04-25T22:04:54.234Z,59.80
2018-04-25T22:07:22.490Z,59.80
2018-04-25T22:09:51.490Z,59.60
2018-04-25T22:12:20.511Z,60.50
2018-04-25T22:14:48.743Z,60.50
2018-04-25T22:17:16.987Z,62.20
2018-04-25T22:19:45.237Z,61.30
2018-04-25T22:22:13.482Z,61.30
2018-04-25T22:24:42.508Z,61.40
2018-04-25T22:27:10.752Z,61.30
2018-04-25T22:29:39.770Z,61.20
2018-04-25T22:32:08.014Z,61.20
2018-04-25T22:34:37.022Z,62.10
2018-04-25T22:37:05.254Z,62.00
2018-04-25T22:39:33.506Z,62.30
2018-04-25T22:42:01.752Z,64.10
2018-04-25T22:44:29.998Z,64.30
2018-04-25T22:46:58.235Z,63.30
2018-04-25T22:49:26.469Z,64.00
2018-04-25T22:51:55.770Z,64.90
2018-04-25T22:54:24.788Z,65.10
2018-04-25T22:56:53.018Z,65.20
2018-04-25T22:59:22.033Z,68.40
2018-04-25T23:01:51.049Z,68.30
2018-04-25T23:04:19.286Z,68.20
2018-04-25T23:06:48.285Z,68.80
2018-04-25T23:09:17.299Z,68.60
2018-04-25T23:11:45.561Z,68.60
2018-04-25T23:14:14.571Z,69.20
2018-04-25T23:16:42.803Z,69.10
2018-04-25T23:19:11.042Z,69.40
2018-04-25T23:21:39.390Z,68.50
2018-04-25T23:24:08.477Z,68.00
2018-04-25T23:26:36.635Z,68.00
2018-04-25T23:29:05.657Z,67.90
2018-04-25T23:31:33.886Z,67.80
2018-04-25T23:34:02.130Z,68.40
2018-04-25T23:36:30.370Z,67.80
2018-04-25T23:38:59.384Z,68.20
2018-04-25T23:41:27.626Z,68.30
2018-04-25T23:43:56.634Z,67.50
2018-04-25T23:46:25.214Z,67.50
2018-04-25T23:48:53.537Z,66.80
2018-04-25T23:51:21.766Z,65.60
2018-04-25T23:53:50.774Z,64.60
2018-04-25T23:56:19.344Z,64.60
2018-04-25T23:58:48.338Z,65.50
